Portada
METAR-TAF:

METAR-TAF

Aeroports :

Theveste, Algèria

latitud: 35-29N, longitud: 008-08E, altitud: 813 m

Observació

L'informe es va fer fa 14 minuts, a les 09:00 UTC
Vent 2 kt del Nord-Est
Temperatura 12°C
Humitat 32%
Pressió 1017 hPa
Visibilitat 10 km o més
sense núvols per sota de 1500 mi sense presència de cumulonimbus.

METAR: DABS 260900Z 04002KT CAVOK 12/M04 Q1017

Hora: 10:14 (09:14 UTC)

Pronòstic

L'informe es va fer fa 4 hores i 14 minuts, a les 05:00 UTC
Pronòstic vàlid del 26 a les 06 UTC al 27 a les 06 UTC
Vent 8 kt del Oest/Nord-Oest
Visibilitat 10 km o més
Escasses núvols a una alçada de 3300 ft
Núvols disperses a una alçada de 4000 ft
Evolucionant progressivament
l' 26 a les 08 UTC al 26 a les 10 UTC
Vent 14 kt del Oest/Nord-Oest
Evolucionant progressivament
l' 26 a les 18 UTC al 26 a les 20 UTC
Vent 8 kt del Nord-Est

TAF: DABS 260500Z 2606/2706 29008KT 9999 FEW033 SCT040 BECMG 2608/2610 30014KT BECMG 2618/2620 04008KT

Observacions i pronòstics meteorològics de més de 4000 aeroports (METAR i TAF).

Les estacions disponibles són els punts grocs i vermells al mapa.

Posi el ratolí al punt desitjat per veure el nom de l'estació.

Feu clic per veure les observacions i els pronòstics meteorològics.

Per canviar el mapa: feu clic els botons verds amb una creu de color negre per apropar; al botó verd amb un guió per allunyar la imatge; o en les fletxes verdes per a mapes adjacents.


METAR-TAF: